Terminal Aerodrome Forecast
Issued by NWS

Current Version | Previous Version | Text Only | Print | Product List | Glossary Off
Versions: 1 2 3 4 5 6 7 8 9 10 11 12 13 14 15 16 17 18 19 20 21 22

000
FTUS41 KILN 010500 RRA
TAFLUK
TAF
KLUK 010543Z 0106/0206 06003KT 3SM -SN SCT025 OVC040
      TEMPO 0106/0109 1 1/2SM -SN BKN028
     FM010900 11003KT P6SM -SNPL SCT025 OVC040
     FM011200 17003KT 5SM -SNPL OVC025
     FM011800 23006KT 3SM -DZ OVC012
     FM012200 28006KT 3SM -SN OVC012
      TEMPO 0200/0203 1SM -SN OVC009
     FM020400 30007KT P6SM OVC012=

USA.gov is the U.S. government's official web portal to all federal, state and local government web resources and services.